createdAt,value
2023-05-19T00:00:08.693Z,0.00
2023-05-19T00:01:08.695Z,0.00
2023-05-19T00:02:08.712Z,0.00
2023-05-19T00:03:08.811Z,0.00
2023-05-19T00:04:08.699Z,0.00
2023-05-19T00:05:08.666Z,0.00
2023-05-19T00:06:08.793Z,0.00
2023-05-19T00:07:08.663Z,0.00
2023-05-19T00:08:08.664Z,0.00
2023-05-19T00:09:08.662Z,0.00
2023-05-19T00:10:08.666Z,0.00
2023-05-19T00:11:08.656Z,0.00
2023-05-19T00:12:08.644Z,0.00
2023-05-19T00:13:08.641Z,0.00
2023-05-19T00:14:08.654Z,0.00
2023-05-19T00:15:08.646Z,0.00
2023-05-19T00:16:08.819Z,0.00
2023-05-19T00:17:08.626Z,0.00
2023-05-19T00:18:08.668Z,0.00
2023-05-19T00:19:08.704Z,0.00
2023-05-19T00:20:08.702Z,0.00
2023-05-19T00:22:15.858Z,0.00
2023-05-19T00:24:12.639Z,0.00
2023-05-19T00:25:12.607Z,0.00
2023-05-19T00:27:16.625Z,0.00
2023-05-19T00:28:16.610Z,0.00
2023-05-19T00:30:20.611Z,0.00
2023-05-19T00:31:20.688Z,0.00
2023-05-19T00:33:24.591Z,0.00
2023-05-19T00:34:24.577Z,0.00
2023-05-19T00:36:29.090Z,0.00
2023-05-19T00:37:28.647Z,0.00
2023-05-19T00:39:33.156Z,0.00
2023-05-19T00:40:32.910Z,0.00
2023-05-19T00:42:25.659Z,0.00
2023-05-19T00:43:25.654Z,0.00
2023-05-19T00:45:29.674Z,0.00
2023-05-19T00:46:29.676Z,0.00
2023-05-19T00:48:33.645Z,0.00
2023-05-19T00:49:33.636Z,0.00
2023-05-19T00:51:37.654Z,0.00
2023-05-19T00:52:37.655Z,0.00
2023-05-19T00:54:41.640Z,0.00
2023-05-19T00:55:41.611Z,0.00
2023-05-19T00:57:45.598Z,0.00
2023-05-19T00:58:45.594Z,0.00
2023-05-19T01:00:49.634Z,0.00
2023-05-19T01:01:49.594Z,0.00
2023-05-19T01:03:53.680Z,0.00
2023-05-19T01:04:53.607Z,0.00
2023-05-19T01:06:57.620Z,0.00
2023-05-19T01:07:57.672Z,0.00
2023-05-19T01:10:01.583Z,0.00
2023-05-19T01:11:01.551Z,0.00
2023-05-19T01:12:54.466Z,0.00
2023-05-19T01:13:54.461Z,0.00
2023-05-19T01:15:58.500Z,0.00
2023-05-19T01:16:58.517Z,0.00
2023-05-19T01:19:02.490Z,0.00
2023-05-19T01:20:02.552Z,0.00
2023-05-19T01:22:06.440Z,0.00
2023-05-19T01:23:06.411Z,0.00
2023-05-19T01:25:10.426Z,0.00
2023-05-19T01:26:10.411Z,0.00
2023-05-19T01:28:14.399Z,0.00
2023-05-19T01:29:14.424Z,0.00
2023-05-19T01:31:18.515Z,0.00
2023-05-19T01:32:18.400Z,0.00
2023-05-19T01:34:22.399Z,0.00
2023-05-19T01:35:22.381Z,0.00
2023-05-19T01:37:26.414Z,0.00
2023-05-19T01:38:26.394Z,0.00
2023-05-19T01:40:30.542Z,0.00
2023-05-19T01:41:30.363Z,0.00
2023-05-19T01:43:34.372Z,0.00
2023-05-19T01:44:34.349Z,0.00
2023-05-19T01:46:38.336Z,0.00
2023-05-19T01:47:38.390Z,0.00
2023-05-19T01:49:42.335Z,0.00
2023-05-19T01:50:42.321Z,0.00
2023-05-19T01:52:35.263Z,0.00
2023-05-19T01:53:35.224Z,0.00
2023-05-19T01:55:39.215Z,0.00
2023-05-19T01:56:39.216Z,0.00
2023-05-19T01:58:43.202Z,0.00
2023-05-19T01:59:43.199Z,0.00
2023-05-19T02:01:48.245Z,0.00
2023-05-19T02:02:48.197Z,0.00
2023-05-19T02:04:52.300Z,0.00
2023-05-19T02:05:52.193Z,0.00
2023-05-19T02:07:56.316Z,0.00
2023-05-19T02:08:56.167Z,0.00
2023-05-19T02:11:00.177Z,0.00
2023-05-19T02:12:00.167Z,0.00
2023-05-19T02:14:04.181Z,0.00
2023-05-19T02:15:04.138Z,0.00
2023-05-19T02:17:08.146Z,0.00
2023-05-19T02:18:08.108Z,0.00
2023-05-19T02:20:12.138Z,0.00
2023-05-19T02:21:12.103Z,0.00
2023-05-19T02:23:16.142Z,0.00
2023-05-19T02:24:16.137Z,0.00
2023-05-19T02:26:20.109Z,0.00
2023-05-19T02:27:20.088Z,0.00
2023-05-19T02:29:24.688Z,0.00
2023-05-19T02:30:24.273Z,0.00
2023-05-19T02:32:17.277Z,4.00
2023-05-19T02:33:17.225Z,4.00
2023-05-19T02:35:21.235Z,4.00
2023-05-19T02:36:21.213Z,0.00
2023-05-19T02:38:25.243Z,4.00
2023-05-19T02:39:25.219Z,4.00
2023-05-19T02:41:29.279Z,8.00
2023-05-19T02:42:29.327Z,4.00
2023-05-19T02:44:33.240Z,8.00
2023-05-19T02:45:33.223Z,8.00
2023-05-19T02:46:33.245Z,8.00
2023-05-19T02:47:34.723Z,12.00
2023-05-19T02:48:33.197Z,8.00
2023-05-19T02:49:33.233Z,12.00
2023-05-19T02:50:33.400Z,12.00
2023-05-19T02:51:33.196Z,12.00
2023-05-19T02:52:33.187Z,12.00
2023-05-19T02:53:33.186Z,16.00
2023-05-19T02:54:33.188Z,16.00
2023-05-19T02:55:33.205Z,20.00
2023-05-19T02:56:33.173Z,16.00
2023-05-19T02:57:33.183Z,20.00
2023-05-19T02:58:33.182Z,20.00
2023-05-19T02:59:33.179Z,20.00
2023-05-19T03:00:33.300Z,24.00
2023-05-19T03:01:33.179Z,24.00
2023-05-19T03:02:33.208Z,28.00
2023-05-19T03:03:33.290Z,36.00
2023-05-19T03:04:33.146Z,40.00
2023-05-19T03:05:33.143Z,48.00
2023-05-19T03:06:33.138Z,52.00
2023-05-19T03:07:33.162Z,56.00
2023-05-19T03:08:33.124Z,64.00
2023-05-19T03:09:33.129Z,68.00
2023-05-19T03:10:33.203Z,76.00
2023-05-19T03:11:33.117Z,88.00
2023-05-19T03:12:33.120Z,100.00
2023-05-19T03:13:33.103Z,112.00
2023-05-19T03:14:33.117Z,120.00
2023-05-19T03:15:33.095Z,128.00
2023-05-19T03:16:33.165Z,136.00
2023-05-19T03:17:33.200Z,144.00
2023-05-19T03:18:33.088Z,156.00
2023-05-19T03:19:33.086Z,168.00
2023-05-19T03:20:33.239Z,176.00
2023-05-19T03:21:33.073Z,188.00
2023-05-19T03:22:33.097Z,200.00
2023-05-19T03:23:33.099Z,216.00
2023-05-19T03:24:33.077Z,224.00
2023-05-19T03:25:33.090Z,228.00
2023-05-19T03:26:33.068Z,236.00
2023-05-19T03:27:33.062Z,244.00
2023-05-19T03:28:33.079Z,252.00
2023-05-19T03:29:33.050Z,252.00
2023-05-19T03:30:33.301Z,248.00
2023-05-19T03:31:33.058Z,248.00
2023-05-19T03:32:33.216Z,260.00
2023-05-19T03:33:33.112Z,276.00
2023-05-19T03:34:33.035Z,308.00
2023-05-19T03:35:33.036Z,348.00
2023-05-19T03:36:33.063Z,380.00
2023-05-19T03:37:33.022Z,420.00
2023-05-19T03:38:33.028Z,452.00
2023-05-19T03:39:33.008Z,472.00
2023-05-19T03:40:33.331Z,496.00
2023-05-19T03:41:33.030Z,540.00
2023-05-19T03:42:33.009Z,600.00
2023-05-19T03:43:33.006Z,652.00
2023-05-19T03:44:33.017Z,716.00
2023-05-19T03:45:33.046Z,792.00
2023-05-19T03:46:33.016Z,844.00
2023-05-19T03:47:32.998Z,896.00
2023-05-19T03:48:32.979Z,936.00
2023-05-19T03:49:32.986Z,980.00
2023-05-19T03:50:33.182Z,1028.00
2023-05-19T03:51:32.987Z,1080.00
2023-05-19T03:52:32.963Z,1128.00
2023-05-19T03:53:32.980Z,1168.00
2023-05-19T03:54:32.963Z,1216.00
2023-05-19T03:55:32.969Z,1256.00
2023-05-19T03:56:33.069Z,1292.00
2023-05-19T03:57:32.950Z,1332.00
2023-05-19T03:58:32.930Z,1368.00
2023-05-19T03:59:32.955Z,1400.00
2023-05-19T04:00:33.185Z,1436.00
2023-05-19T04:01:32.956Z,1476.00
2023-05-19T04:02:32.982Z,1504.00
2023-05-19T04:03:32.971Z,1548.00
2023-05-19T04:04:33.007Z,1596.00
2023-05-19T04:05:32.920Z,1648.00
2023-05-19T04:06:32.920Z,1700.00
2023-05-19T04:07:32.910Z,1724.00
2023-05-19T04:08:32.898Z,1732.00
2023-05-19T04:09:32.890Z,1764.00
2023-05-19T04:10:33.117Z,1796.00
2023-05-19T04:11:32.914Z,1828.00
2023-05-19T04:12:32.885Z,1860.00
2023-05-19T04:13:32.890Z,1880.00
2023-05-19T04:14:32.896Z,1908.00
2023-05-19T04:15:32.939Z,1936.00
2023-05-19T04:16:32.912Z,1964.00
2023-05-19T04:17:32.957Z,1984.00
2023-05-19T04:18:32.853Z,2008.00
2023-05-19T04:19:32.858Z,2028.00
2023-05-19T04:20:33.001Z,2052.00
2023-05-19T04:21:32.857Z,2076.00
2023-05-19T04:22:32.852Z,2092.00
2023-05-19T04:23:32.852Z,2100.00
2023-05-19T04:24:32.836Z,2112.00
2023-05-19T04:25:32.896Z,2128.00
2023-05-19T04:26:32.830Z,2144.00
2023-05-19T04:27:32.832Z,2176.00
2023-05-19T04:28:32.818Z,2204.00
2023-05-19T04:29:32.846Z,2232.00
2023-05-19T04:30:32.969Z,2268.00
2023-05-19T04:31:32.835Z,2308.00
2023-05-19T04:32:32.842Z,2348.00
2023-05-19T04:33:32.811Z,2388.00
2023-05-19T04:34:32.808Z,2428.00
2023-05-19T04:35:32.800Z,2452.00
2023-05-19T04:36:32.803Z,2468.00
2023-05-19T04:37:32.802Z,2492.00
2023-05-19T04:38:32.785Z,2532.00
2023-05-19T04:39:32.789Z,2568.00
2023-05-19T04:40:33.021Z,2612.00
2023-05-19T04:41:32.788Z,2660.00
2023-05-19T04:42:32.787Z,2720.00
2023-05-19T04:43:32.770Z,2776.00
2023-05-19T04:44:32.768Z,2840.00
2023-05-19T04:45:32.766Z,2912.00
2023-05-19T04:46:32.786Z,2988.00
2023-05-19T04:47:32.794Z,3076.00
2023-05-19T04:48:32.750Z,3196.00
2023-05-19T04:49:32.753Z,3304.00
2023-05-19T04:50:33.071Z,3408.00
2023-05-19T04:51:32.760Z,3508.00
2023-05-19T04:52:32.737Z,3640.00
2023-05-19T04:53:32.739Z,3736.00
2023-05-19T04:54:32.746Z,3812.00
2023-05-19T04:55:32.729Z,3884.00
2023-05-19T04:56:32.740Z,3948.00
2023-05-19T04:57:32.732Z,4000.00
2023-05-19T04:58:32.723Z,4052.00
2023-05-19T04:59:32.802Z,4112.00
2023-05-19T05:00:32.941Z,4184.00
2023-05-19T05:01:32.755Z,4268.00
2023-05-19T05:02:32.765Z,4344.00
2023-05-19T05:03:32.851Z,4428.00
2023-05-19T05:04:32.735Z,4520.00
2023-05-19T05:05:32.706Z,4600.00
2023-05-19T05:06:32.690Z,4664.00
2023-05-19T05:07:32.753Z,4728.00
2023-05-19T05:08:32.685Z,4792.00
2023-05-19T05:09:32.691Z,4856.00
2023-05-19T05:10:32.834Z,4920.00
2023-05-19T05:11:32.673Z,4972.00
2023-05-19T05:12:32.668Z,5032.00
2023-05-19T05:13:32.669Z,5104.00
2023-05-19T05:14:32.671Z,5188.00
2023-05-19T05:15:32.685Z,5280.00
2023-05-19T05:16:32.744Z,5372.00
2023-05-19T05:17:32.705Z,5488.00
2023-05-19T05:18:32.657Z,5620.00
2023-05-19T05:19:32.741Z,5756.00
2023-05-19T05:20:32.882Z,5888.00
2023-05-19T05:21:32.658Z,6044.00
2023-05-19T05:22:32.645Z,6224.00
2023-05-19T05:23:32.644Z,6452.00
2023-05-19T05:24:32.637Z,6732.00
2023-05-19T05:25:32.899Z,7060.00
2023-05-19T05:26:32.628Z,7448.00
2023-05-19T05:27:32.631Z,7956.00
2023-05-19T05:28:32.622Z,8800.00
2023-05-19T05:29:32.622Z,11288.00
2023-05-19T05:30:32.625Z,14640.00
2023-05-19T05:31:32.623Z,18112.00
2023-05-19T05:32:32.654Z,24448.00
2023-05-19T05:33:32.735Z,28384.00
2023-05-19T05:34:32.601Z,27296.00
2023-05-19T05:35:32.746Z,29536.00
2023-05-19T05:36:32.593Z,28000.00
2023-05-19T05:37:32.600Z,27968.00
2023-05-19T05:38:32.593Z,28736.00
2023-05-19T05:39:32.598Z,19552.00
2023-05-19T05:40:32.616Z,18528.00
2023-05-19T05:41:32.604Z,10532.00
2023-05-19T05:42:32.588Z,15052.00
2023-05-19T05:43:32.613Z,13584.00
2023-05-19T05:44:32.596Z,9676.00
2023-05-19T05:45:32.845Z,15024.00
2023-05-19T05:46:32.667Z,12200.00
2023-05-19T05:47:32.601Z,17984.00
2023-05-19T05:48:32.595Z,14752.00
2023-05-19T05:49:32.584Z,14836.00
2023-05-19T05:50:32.581Z,11776.00
2023-05-19T05:51:32.584Z,13696.00
2023-05-19T05:52:32.585Z,28000.00
2023-05-19T05:53:32.582Z,14648.00
2023-05-19T05:54:32.611Z,25056.00
2023-05-19T05:55:32.705Z,39104.00
2023-05-19T05:56:32.574Z,55936.00
2023-05-19T05:57:32.580Z,61600.00
2023-05-19T05:58:32.570Z,42080.00
2023-05-19T05:59:32.614Z,18016.00
2023-05-19T06:00:32.773Z,22272.00
2023-05-19T06:01:34.853Z,71008.00
2023-05-19T06:02:32.701Z,71616.00
2023-05-19T06:03:32.607Z,75840.00
2023-05-19T06:04:32.569Z,80832.00
2023-05-19T06:05:32.660Z,82368.00
2023-05-19T06:06:32.581Z,81856.00
2023-05-19T06:07:32.588Z,81536.00
2023-05-19T06:08:32.584Z,81120.00
2023-05-19T06:09:32.592Z,84032.00
2023-05-19T06:10:32.790Z,52320.00
2023-05-19T06:11:32.601Z,81376.00
2023-05-19T06:12:32.628Z,92192.00
2023-05-19T06:13:32.616Z,55072.00
2023-05-19T06:14:32.615Z,38496.00
2023-05-19T06:15:32.695Z,82656.00
2023-05-19T06:16:32.654Z,79360.00
2023-05-19T06:17:32.659Z,73920.00
2023-05-19T06:18:32.682Z,75136.00
2023-05-19T06:19:32.650Z,72960.00
2023-05-19T06:20:32.926Z,65856.00
2023-05-19T06:21:32.736Z,70304.00
2023-05-19T06:22:32.679Z,60576.00
2023-05-19T06:23:32.702Z,19104.00
2023-05-19T06:24:32.687Z,41056.00
2023-05-19T06:25:32.971Z,54304.00
2023-05-19T06:26:32.699Z,61248.00
2023-05-19T06:27:34.737Z,60288.00
2023-05-19T06:28:32.715Z,57568.00
2023-05-19T06:29:32.718Z,46848.00
2023-05-19T06:30:32.862Z,58720.00
2023-05-19T06:31:32.759Z,56576.00
2023-05-19T06:32:32.781Z,55520.00
2023-05-19T06:33:32.814Z,61024.00
2023-05-19T06:34:32.772Z,50592.00
2023-05-19T06:35:32.764Z,48800.00
2023-05-19T06:36:32.777Z,44448.00
2023-05-19T06:37:32.823Z,41440.00
2023-05-19T06:38:32.801Z,40384.00
2023-05-19T06:39:32.790Z,46400.00
2023-05-19T06:40:32.951Z,45664.00
2023-05-19T06:41:32.817Z,46688.00
2023-05-19T06:42:32.857Z,53728.00
2023-05-19T06:43:32.846Z,55808.00
2023-05-19T06:44:32.834Z,64736.00
2023-05-19T06:45:32.834Z,59744.00
2023-05-19T06:46:32.870Z,56704.00
2023-05-19T06:47:32.911Z,65440.00
2023-05-19T06:48:32.887Z,63968.00
2023-05-19T06:49:32.860Z,60704.00
2023-05-19T06:50:33.045Z,56192.00
2023-05-19T06:51:32.911Z,67168.00
2023-05-19T06:52:32.895Z,66848.00
2023-05-19T06:53:32.935Z,63072.00
2023-05-19T06:54:32.905Z,67776.00
2023-05-19T06:55:34.380Z,62432.00
2023-05-19T06:56:32.943Z,63936.00
2023-05-19T06:57:32.968Z,64448.00
2023-05-19T06:58:32.945Z,68224.00
2023-05-19T06:59:32.962Z,59840.00
2023-05-19T07:00:33.135Z,61216.00
2023-05-19T07:01:32.981Z,65344.00
2023-05-19T07:02:33.053Z,68128.00
2023-05-19T07:03:33.064Z,69728.00
2023-05-19T07:04:32.989Z,70528.00
2023-05-19T07:05:33.076Z,60896.00
2023-05-19T07:06:33.026Z,64032.00
2023-05-19T07:07:33.024Z,60736.00
2023-05-19T07:08:33.038Z,71360.00
2023-05-19T07:09:33.133Z,74176.00
2023-05-19T07:10:33.256Z,71872.00
2023-05-19T07:11:33.055Z,73184.00
2023-05-19T07:12:33.066Z,78048.00
2023-05-19T07:13:33.079Z,75680.00
2023-05-19T07:14:33.097Z,77984.00
2023-05-19T07:15:33.103Z,70368.00
2023-05-19T07:16:33.127Z,61888.00
2023-05-19T07:17:33.166Z,58688.00
2023-05-19T07:18:33.131Z,66272.00
2023-05-19T07:19:33.145Z,72832.00
2023-05-19T07:20:33.414Z,78240.00
2023-05-19T07:21:33.201Z,48832.00
2023-05-19T07:22:33.195Z,88928.00
2023-05-19T07:23:33.215Z,61216.00
2023-05-19T07:24:33.221Z,84864.00
2023-05-19T07:25:33.255Z,53920.00
2023-05-19T07:26:33.238Z,89728.00
2023-05-19T07:27:33.237Z,28352.00
2023-05-19T07:28:33.255Z,93600.00
2023-05-19T07:29:33.271Z,107072.00
2023-05-19T07:30:33.581Z,80928.00
2023-05-19T07:31:33.328Z,97376.00
2023-05-19T07:32:33.377Z,71104.00
2023-05-19T07:33:33.304Z,40384.00
2023-05-19T07:34:33.312Z,62784.00
2023-05-19T07:35:33.328Z,44384.00
2023-05-19T07:36:33.335Z,26944.00
2023-05-19T07:37:33.344Z,28800.00
2023-05-19T07:38:33.405Z,42432.00
2023-05-19T07:39:33.364Z,30720.00
2023-05-19T07:40:33.516Z,82688.00
2023-05-19T07:41:34.370Z,46592.00
2023-05-19T07:42:33.419Z,98080.00
2023-05-19T07:43:33.492Z,76352.00
2023-05-19T07:44:33.443Z,64928.00
2023-05-19T07:45:33.484Z,56928.00
2023-05-19T07:46:33.480Z,40288.00
2023-05-19T07:47:33.504Z,58080.00
2023-05-19T07:48:33.474Z,48512.00
2023-05-19T07:49:33.505Z,70560.00
2023-05-19T07:50:33.648Z,80608.00
2023-05-19T07:51:33.503Z,85504.00
2023-05-19T07:52:33.525Z,75232.00
2023-05-19T07:53:33.534Z,83840.00
2023-05-19T07:54:33.547Z,87584.00
2023-05-19T07:55:33.547Z,81504.00
2023-05-19T07:56:33.549Z,69760.00
2023-05-19T07:57:33.684Z,43552.00
2023-05-19T07:58:33.570Z,21216.00
2023-05-19T07:59:33.607Z,20960.00
2023-05-19T08:00:33.762Z,19744.00
2023-05-19T08:01:33.604Z,18752.00
2023-05-19T08:02:33.643Z,17440.00
2023-05-19T08:03:33.950Z,17728.00
2023-05-19T08:04:33.677Z,15936.00
2023-05-19T08:05:33.632Z,14336.00
2023-05-19T08:06:33.666Z,14720.00
2023-05-19T08:07:33.662Z,14644.00
2023-05-19T08:08:33.674Z,14380.00
2023-05-19T08:09:33.680Z,13980.00
2023-05-19T08:10:33.965Z,13544.00
2023-05-19T08:11:33.706Z,13196.00
2023-05-19T08:12:33.749Z,12948.00
2023-05-19T08:13:33.741Z,12656.00
2023-05-19T08:14:33.766Z,12384.00
2023-05-19T08:15:33.848Z,12132.00
2023-05-19T08:16:33.765Z,11912.00
2023-05-19T08:17:33.840Z,11720.00
2023-05-19T08:18:33.785Z,11580.00
2023-05-19T08:19:33.791Z,11444.00
2023-05-19T08:20:34.041Z,11400.00
2023-05-19T08:21:33.797Z,11304.00
2023-05-19T08:22:33.810Z,11628.00
2023-05-19T08:23:33.813Z,11976.00
2023-05-19T08:24:33.897Z,12732.00
2023-05-19T08:25:33.832Z,11384.00
2023-05-19T08:26:35.744Z,13428.00
2023-05-19T08:27:33.852Z,13648.00
2023-05-19T08:28:33.851Z,11624.00
2023-05-19T08:29:33.887Z,11424.00
2023-05-19T08:30:34.107Z,11348.00
2023-05-19T08:31:33.909Z,11344.00
2023-05-19T08:32:33.944Z,11704.00
2023-05-19T08:33:33.904Z,10944.00
2023-05-19T08:34:33.894Z,11004.00
2023-05-19T08:35:33.880Z,11412.00
2023-05-19T08:36:33.954Z,11128.00
2023-05-19T08:37:34.260Z,12152.00
2023-05-19T08:38:33.892Z,13268.00
2023-05-19T08:39:33.904Z,14692.00
2023-05-19T08:40:34.135Z,15128.00
2023-05-19T08:41:33.944Z,13400.00
2023-05-19T08:42:33.929Z,12804.00
2023-05-19T08:43:33.951Z,12028.00
2023-05-19T08:44:33.925Z,11996.00
2023-05-19T08:45:34.306Z,12104.00
2023-05-19T08:46:33.951Z,11532.00
2023-05-19T08:47:33.968Z,11300.00
2023-05-19T08:48:33.944Z,11784.00
2023-05-19T08:49:34.001Z,11996.00
2023-05-19T08:50:34.282Z,12840.00
2023-05-19T08:51:33.949Z,12396.00
2023-05-19T08:52:33.962Z,11652.00
2023-05-19T08:53:34.781Z,11212.00
2023-05-19T08:54:33.999Z,10248.00
2023-05-19T08:55:34.525Z,10728.00
2023-05-19T08:56:33.958Z,9136.00
2023-05-19T08:57:33.961Z,9256.00
2023-05-19T08:58:33.973Z,9136.00
2023-05-19T08:59:33.980Z,10448.00
2023-05-19T09:00:34.193Z,10476.00
2023-05-19T09:01:34.068Z,10324.00
2023-05-19T09:02:33.989Z,10160.00
2023-05-19T09:03:34.044Z,9236.00
2023-05-19T09:04:34.084Z,7124.00
2023-05-19T09:05:34.294Z,6920.00
2023-05-19T09:06:34.026Z,7876.00
2023-05-19T09:07:34.013Z,7776.00
2023-05-19T09:08:34.014Z,8272.00
2023-05-19T09:09:34.013Z,8340.00
2023-05-19T09:10:34.018Z,7116.00
2023-05-19T09:11:34.017Z,8204.00
2023-05-19T09:12:34.028Z,8588.00
2023-05-19T09:13:34.014Z,9184.00
2023-05-19T09:14:34.022Z,9116.00
2023-05-19T09:15:34.405Z,9052.00
2023-05-19T09:16:34.229Z,8980.00
2023-05-19T09:17:34.059Z,9144.00
2023-05-19T09:18:34.096Z,8936.00
2023-05-19T09:19:34.103Z,7960.00
2023-05-19T09:20:34.050Z,7808.00
2023-05-19T09:21:34.053Z,8624.00
2023-05-19T09:22:34.072Z,8136.00
2023-05-19T09:23:34.158Z,7140.00
2023-05-19T09:24:34.096Z,7032.00
2023-05-19T09:25:34.282Z,7132.00
2023-05-19T09:26:34.078Z,6536.00
2023-05-19T09:27:34.050Z,6976.00
2023-05-19T09:28:34.099Z,6112.00
2023-05-19T09:29:34.061Z,6256.00
2023-05-19T09:30:34.093Z,6292.00
2023-05-19T09:31:34.155Z,6584.00
2023-05-19T09:32:34.129Z,7844.00
2023-05-19T09:33:34.217Z,6824.00
2023-05-19T09:34:34.102Z,6136.00
2023-05-19T09:35:34.305Z,5852.00
2023-05-19T09:36:34.107Z,7136.00
2023-05-19T09:37:34.096Z,6084.00
2023-05-19T09:38:34.093Z,6020.00
2023-05-19T09:39:34.092Z,5756.00
2023-05-19T09:40:34.089Z,6264.00
2023-05-19T09:41:34.085Z,7212.00
2023-05-19T09:42:34.125Z,7588.00
2023-05-19T09:43:34.095Z,7176.00
2023-05-19T09:44:34.098Z,6964.00
2023-05-19T09:45:34.292Z,7480.00
2023-05-19T09:46:34.131Z,7384.00
2023-05-19T09:47:34.129Z,7248.00
2023-05-19T09:48:34.107Z,7112.00
2023-05-19T09:49:34.296Z,6808.00
2023-05-19T09:50:34.114Z,6956.00
2023-05-19T09:51:34.104Z,7304.00
2023-05-19T09:52:34.128Z,6964.00
2023-05-19T09:53:34.118Z,6596.00
2023-05-19T09:54:34.142Z,6264.00
2023-05-19T09:55:34.289Z,6048.00
2023-05-19T09:56:34.139Z,7208.00
2023-05-19T09:57:34.124Z,7632.00
2023-05-19T09:58:34.143Z,8032.00
2023-05-19T09:59:34.344Z,8144.00
2023-05-19T10:00:34.418Z,8064.00
2023-05-19T10:01:34.174Z,7720.00
2023-05-19T10:02:34.169Z,7080.00
2023-05-19T10:03:34.142Z,7112.00
2023-05-19T10:04:34.169Z,8084.00
2023-05-19T10:05:34.653Z,7312.00
2023-05-19T10:06:34.135Z,7140.00
2023-05-19T10:07:34.138Z,7100.00
2023-05-19T10:08:34.139Z,7636.00
2023-05-19T10:09:34.148Z,7504.00
2023-05-19T10:10:34.156Z,7172.00
2023-05-19T10:11:34.156Z,7056.00
2023-05-19T10:12:34.160Z,6864.00
2023-05-19T10:13:34.149Z,6912.00
2023-05-19T10:14:34.152Z,7144.00
2023-05-19T10:15:40.776Z,7524.00
2023-05-19T10:16:34.252Z,7028.00
2023-05-19T10:17:34.190Z,6860.00
2023-05-19T10:18:34.162Z,6948.00
2023-05-19T10:19:34.240Z,6872.00
2023-05-19T10:20:34.377Z,7060.00
2023-05-19T10:21:34.191Z,7020.00
2023-05-19T10:22:34.167Z,7584.00
2023-05-19T10:23:34.183Z,7312.00
2023-05-19T10:24:34.167Z,7300.00
2023-05-19T10:25:34.382Z,7492.00
2023-05-19T10:26:34.171Z,8124.00
2023-05-19T10:27:34.168Z,8220.00
2023-05-19T10:28:34.172Z,8328.00
2023-05-19T10:29:34.180Z,7716.00
2023-05-19T10:30:34.186Z,7132.00
2023-05-19T10:31:34.195Z,7020.00
2023-05-19T10:32:34.347Z,6672.00
2023-05-19T10:33:34.199Z,6848.00
2023-05-19T10:34:34.190Z,6972.00
2023-05-19T10:35:34.384Z,7052.00
2023-05-19T10:36:34.238Z,6836.00
2023-05-19T10:37:34.228Z,6704.00
2023-05-19T10:38:34.208Z,6680.00
2023-05-19T10:39:34.211Z,6592.00
2023-05-19T10:40:34.235Z,6984.00
2023-05-19T10:41:34.196Z,7484.00
2023-05-19T10:42:34.196Z,7852.00
2023-05-19T10:43:34.198Z,7996.00
2023-05-19T10:44:34.196Z,7960.00
2023-05-19T10:45:34.454Z,7840.00
2023-05-19T10:46:34.288Z,7604.00
2023-05-19T10:47:34.255Z,7172.00
2023-05-19T10:48:34.210Z,6544.00
2023-05-19T10:49:34.215Z,5716.00
2023-05-19T10:50:34.215Z,4904.00
2023-05-19T10:51:34.217Z,4192.00
2023-05-19T10:52:34.221Z,3852.00
2023-05-19T10:53:34.307Z,3868.00
2023-05-19T10:54:34.225Z,4260.00
2023-05-19T10:55:34.405Z,4912.00
2023-05-19T10:56:34.264Z,5724.00
2023-05-19T10:57:34.222Z,6300.00
2023-05-19T10:58:34.250Z,6776.00
2023-05-19T10:59:34.245Z,7012.00
2023-05-19T11:00:34.225Z,7224.00
2023-05-19T11:01:34.304Z,7484.00
2023-05-19T11:02:34.252Z,7816.00
2023-05-19T11:03:34.268Z,8108.00
2023-05-19T11:04:34.274Z,8348.00
2023-05-19T11:05:34.570Z,8524.00
2023-05-19T11:06:34.239Z,8544.00
2023-05-19T11:07:34.246Z,8252.00
2023-05-19T11:08:34.252Z,7956.00
2023-05-19T11:09:39.901Z,7864.00
2023-05-19T11:10:34.252Z,7264.00
2023-05-19T11:11:34.892Z,6472.00
2023-05-19T11:12:34.238Z,5736.00
2023-05-19T11:13:34.267Z,5128.00
2023-05-19T11:14:34.246Z,4788.00
2023-05-19T11:15:34.631Z,4884.00
2023-05-19T11:16:34.307Z,5048.00
2023-05-19T11:17:35.119Z,5364.00
2023-05-19T11:18:34.255Z,5752.00
2023-05-19T11:19:34.253Z,5952.00
2023-05-19T11:20:34.297Z,5624.00
2023-05-19T11:21:34.446Z,5312.00
2023-05-19T11:22:34.254Z,5072.00
2023-05-19T11:23:35.571Z,4864.00
2023-05-19T11:24:34.275Z,4860.00
2023-05-19T11:25:34.409Z,5148.00
2023-05-19T11:26:34.276Z,5556.00
2023-05-19T11:27:34.267Z,6068.00
2023-05-19T11:28:34.273Z,6492.00
2023-05-19T11:29:34.866Z,6396.00
2023-05-19T11:30:34.263Z,6232.00
2023-05-19T11:31:34.301Z,6184.00
2023-05-19T11:32:34.322Z,6288.00
2023-05-19T11:33:34.274Z,6400.00
2023-05-19T11:34:34.268Z,6384.00
2023-05-19T11:35:36.232Z,6084.00
2023-05-19T11:36:34.292Z,6152.00
2023-05-19T11:37:34.307Z,6072.00
2023-05-19T11:38:34.280Z,6024.00
2023-05-19T11:39:34.288Z,5908.00
2023-05-19T11:40:34.287Z,5900.00
2023-05-19T11:41:34.308Z,5996.00
2023-05-19T11:42:34.279Z,6960.00
2023-05-19T11:43:34.296Z,5852.00
2023-05-19T11:44:34.282Z,5524.00
2023-05-19T11:45:34.619Z,5296.00
2023-05-19T11:46:34.345Z,5092.00
2023-05-19T11:47:42.000Z,5292.00
2023-05-19T11:48:34.329Z,5328.00
2023-05-19T11:49:34.284Z,5376.00
2023-05-19T11:50:34.286Z,5584.00
2023-05-19T11:51:34.296Z,5584.00
2023-05-19T11:52:34.364Z,5536.00
2023-05-19T11:53:35.230Z,5520.00
2023-05-19T11:54:34.294Z,5308.00
2023-05-19T11:55:34.344Z,5360.00
2023-05-19T11:56:34.292Z,5112.00
2023-05-19T11:57:34.344Z,5124.00
2023-05-19T11:58:34.302Z,5316.00
2023-05-19T11:59:36.040Z,5556.00
2023-05-19T12:00:34.327Z,5548.00
2023-05-19T12:01:34.315Z,5380.00
2023-05-19T12:02:34.406Z,5212.00
2023-05-19T12:03:34.354Z,5040.00
2023-05-19T12:04:34.359Z,4972.00
2023-05-19T12:05:38.039Z,5052.00
2023-05-19T12:06:34.368Z,5304.00
2023-05-19T12:07:34.309Z,5484.00
2023-05-19T12:08:34.303Z,6160.00
2023-05-19T12:09:34.312Z,6028.00
2023-05-19T12:10:34.310Z,5696.00
2023-05-19T12:11:34.320Z,5880.00
2023-05-19T12:12:34.303Z,5536.00
2023-05-19T12:13:34.320Z,5552.00
2023-05-19T12:14:34.318Z,5376.00
2023-05-19T12:15:34.620Z,5488.00
2023-05-19T12:16:34.379Z,5624.00
2023-05-19T12:17:34.386Z,5636.00
2023-05-19T12:18:34.326Z,5620.00
2023-05-19T12:19:34.331Z,5580.00
2023-05-19T12:20:34.334Z,5572.00
2023-05-19T12:21:34.599Z,6332.00
2023-05-19T12:22:34.326Z,5732.00
2023-05-19T12:23:41.503Z,5352.00
2023-05-19T12:25:38.442Z,4828.00
2023-05-19T12:26:38.355Z,4980.00
2023-05-19T12:28:42.432Z,5140.00
2023-05-19T12:29:42.373Z,5032.00
2023-05-19T12:31:46.893Z,4568.00
2023-05-19T12:32:46.432Z,4376.00
2023-05-19T12:34:39.390Z,4024.00
2023-05-19T12:35:39.306Z,3996.00
2023-05-19T12:36:39.371Z,4476.00
2023-05-19T12:37:39.307Z,3940.00
2023-05-19T12:38:39.313Z,3984.00
2023-05-19T12:39:39.299Z,5100.00
2023-05-19T12:40:39.396Z,5268.00
2023-05-19T12:41:39.317Z,5596.00
2023-05-19T12:42:39.321Z,5604.00
2023-05-19T12:43:39.349Z,5176.00
2023-05-19T12:44:39.328Z,4284.00
2023-05-19T12:45:39.336Z,4400.00
2023-05-19T12:46:39.321Z,4612.00
2023-05-19T12:47:39.433Z,4556.00
2023-05-19T12:48:39.328Z,4364.00
2023-05-19T12:49:39.395Z,4404.00
2023-05-19T12:50:39.329Z,5376.00
2023-05-19T12:51:39.334Z,4728.00
2023-05-19T12:52:39.328Z,4932.00
2023-05-19T12:53:39.387Z,4336.00
2023-05-19T12:54:39.370Z,4084.00
2023-05-19T12:55:39.345Z,4084.00
2023-05-19T12:56:39.362Z,3428.00
2023-05-19T12:57:39.354Z,3168.00
2023-05-19T12:58:39.390Z,3068.00
2023-05-19T12:59:39.324Z,3048.00
2023-05-19T13:00:39.475Z,3232.00
2023-05-19T13:01:39.378Z,4796.00
2023-05-19T13:02:39.422Z,5368.00
2023-05-19T13:03:39.445Z,5900.00
2023-05-19T13:04:39.339Z,6004.00
2023-05-19T13:05:39.408Z,6240.00
2023-05-19T13:06:39.335Z,6360.00